createdAt,value
2018-11-04T00:02:21.436Z,99.04
2018-11-04T00:04:50.800Z,99.66
2018-11-04T00:07:20.677Z,99.09
2018-11-04T00:09:50.023Z,98.76
2018-11-04T00:12:19.426Z,99.28
2018-11-04T00:14:48.885Z,99.69
2018-11-04T00:17:18.364Z,100.00
2018-11-04T00:19:47.812Z,100.00
2018-11-04T00:22:17.305Z,100.00
2018-11-04T00:24:46.843Z,100.00
2018-11-04T00:27:16.263Z,100.00
2018-11-04T00:29:45.632Z,100.00
2018-11-04T00:32:14.889Z,100.00
2018-11-04T00:34:44.255Z,100.00
2018-11-04T00:37:13.538Z,100.00
2018-11-04T00:39:42.778Z,100.00
2018-11-04T00:42:12.043Z,100.00
2018-11-04T00:44:41.294Z,100.00
2018-11-04T00:47:10.529Z,100.00
2018-11-04T00:49:39.817Z,100.00
2018-11-04T00:52:09.078Z,100.00
2018-11-04T00:54:38.303Z,100.00
2018-11-04T00:57:07.733Z,99.50
2018-11-04T00:59:36.985Z,99.37
2018-11-04T01:02:06.396Z,99.89
2018-11-04T01:04:35.716Z,99.68
2018-11-04T01:07:05.429Z,99.89
2018-11-04T01:09:34.830Z,99.84
2018-11-04T01:12:04.134Z,99.70
2018-11-04T01:14:33.566Z,99.76
2018-11-04T01:17:02.956Z,99.69
2018-11-04T01:19:32.230Z,99.67
2018-11-04T01:22:01.610Z,100.00
2018-11-04T01:24:30.913Z,100.00
2018-11-04T01:27:00.239Z,99.27
2018-11-04T01:29:29.576Z,99.20
2018-11-04T01:31:58.827Z,99.89
2018-11-04T01:34:28.062Z,100.00
2018-11-04T01:36:57.311Z,99.95
2018-11-04T01:39:26.567Z,100.00
2018-11-04T01:41:55.865Z,100.00
2018-11-04T01:44:25.117Z,100.00
2018-11-04T01:46:54.400Z,99.81
2018-11-04T01:49:23.658Z,100.00
2018-11-04T01:51:53.024Z,100.00
2018-11-04T01:54:22.326Z,99.99
2018-11-04T01:56:51.681Z,100.00
2018-11-04T01:59:21.107Z,100.00
2018-11-04T02:01:50.511Z,99.89
2018-11-04T02:04:19.890Z,99.54
2018-11-04T02:06:49.452Z,99.49
2018-11-04T02:09:18.924Z,99.53
2018-11-04T02:11:48.340Z,99.20
2018-11-04T02:14:17.707Z,98.99
2018-11-04T02:16:47.133Z,99.01
2018-11-04T02:19:16.721Z,98.93
2018-11-04T02:21:46.196Z,98.89
2018-11-04T02:24:15.736Z,99.15
2018-11-04T02:26:45.079Z,99.33
2018-11-04T02:29:14.370Z,99.49
2018-11-04T02:31:43.489Z,98.97
2018-11-04T02:34:12.844Z,99.09
2018-11-04T02:36:42.114Z,99.12
2018-11-04T02:39:11.436Z,99.01
2018-11-04T02:41:40.699Z,98.97
2018-11-04T02:44:10.031Z,99.21
2018-11-04T02:46:39.391Z,98.77
2018-11-04T02:49:08.682Z,98.72
2018-11-04T02:51:38.047Z,98.78
2018-11-04T02:54:07.498Z,98.75
2018-11-04T02:56:36.929Z,99.04
2018-11-04T02:59:06.808Z,98.99
2018-11-04T03:01:36.123Z,99.14
2018-11-04T03:04:05.616Z,98.56
2018-11-04T03:06:34.937Z,98.67
2018-11-04T03:09:04.995Z,98.86
2018-11-04T03:11:34.283Z,99.06
2018-11-04T03:14:03.562Z,99.03
2018-11-04T03:16:32.863Z,99.24
2018-11-04T03:19:02.122Z,99.58
2018-11-04T03:21:31.488Z,99.38
2018-11-04T03:24:00.803Z,99.74
2018-11-04T03:26:30.431Z,100.00
2018-11-04T03:28:59.718Z,99.67
2018-11-04T03:31:29.090Z,99.61
2018-11-04T03:33:58.370Z,99.71
2018-11-04T03:36:27.674Z,99.65
2018-11-04T03:38:56.978Z,99.43
2018-11-04T03:41:26.258Z,99.60
2018-11-04T03:43:55.499Z,99.44
2018-11-04T03:46:24.753Z,99.50
2018-11-04T03:48:54.004Z,99.43
2018-11-04T03:51:23.349Z,99.62
2018-11-04T03:53:52.645Z,99.84
2018-11-04T03:56:21.986Z,99.59
2018-11-04T03:58:51.376Z,99.50
2018-11-04T04:01:20.818Z,99.78
2018-11-04T04:03:50.346Z,99.55
2018-11-04T04:06:19.755Z,99.89
2018-11-04T04:08:49.411Z,100.00
2018-11-04T04:11:19.023Z,99.62
2018-11-04T04:13:48.666Z,99.69
2018-11-04T04:16:18.109Z,99.69
2018-11-04T04:18:47.598Z,99.86
2018-11-04T04:21:17.399Z,99.31
2018-11-04T04:23:46.917Z,99.17
2018-11-04T04:26:16.500Z,99.50
2018-11-04T04:28:46.054Z,99.75
2018-11-04T04:31:15.513Z,99.70
2018-11-04T04:33:44.861Z,99.37
2018-11-04T04:36:14.117Z,99.40
2018-11-04T04:38:43.391Z,99.62
2018-11-04T04:41:12.790Z,99.97
2018-11-04T04:43:42.063Z,99.73
2018-11-04T04:46:11.338Z,99.72
2018-11-04T04:48:40.628Z,99.66
2018-11-04T04:51:09.893Z,99.60
2018-11-04T04:53:39.148Z,99.03
2018-11-04T04:56:08.480Z,99.01
2018-11-04T04:58:37.750Z,98.75
2018-11-04T05:01:07.186Z,98.74
2018-11-04T05:03:36.575Z,98.97
2018-11-04T05:06:06.085Z,98.93
2018-11-04T05:08:35.421Z,99.25
2018-11-04T05:11:04.783Z,98.80
2018-11-04T05:13:34.093Z,98.25
2018-11-04T05:16:03.359Z,97.60
2018-11-04T05:18:32.641Z,97.81
2018-11-04T05:21:01.878Z,97.49
2018-11-04T05:23:31.136Z,97.09
2018-11-04T05:26:00.399Z,97.25
2018-11-04T05:28:29.733Z,97.55
2018-11-04T05:30:59.032Z,97.53
2018-11-04T05:33:28.290Z,97.76
2018-11-04T05:35:57.566Z,96.47
2018-11-04T05:38:26.996Z,96.65
2018-11-04T05:40:56.242Z,96.95
2018-11-04T05:43:25.551Z,97.57
2018-11-04T05:45:54.893Z,97.52
2018-11-04T05:48:24.215Z,96.70
2018-11-04T05:50:53.465Z,96.67
2018-11-04T05:53:22.886Z,96.62
2018-11-04T05:55:52.203Z,96.39
2018-11-04T05:58:21.558Z,96.75
2018-11-04T06:00:50.950Z,97.00
2018-11-04T06:03:20.373Z,96.53
2018-11-04T06:05:49.759Z,96.85
2018-11-04T06:08:19.247Z,97.20
2018-11-04T06:10:48.737Z,97.23
2018-11-04T06:13:18.117Z,97.22
2018-11-04T06:15:47.605Z,97.16
2018-11-04T06:18:17.522Z,97.37
2018-11-04T06:20:47.019Z,97.14
2018-11-04T06:23:16.589Z,96.72
2018-11-04T06:25:45.938Z,96.24
2018-11-04T06:28:15.238Z,96.29
2018-11-04T06:30:44.580Z,95.64
2018-11-04T06:33:13.995Z,96.03
2018-11-04T06:35:43.285Z,96.24
2018-11-04T06:38:12.516Z,96.26
2018-11-04T06:40:41.882Z,95.75
2018-11-04T06:43:10.974Z,96.46
2018-11-04T06:45:40.234Z,96.32
2018-11-04T06:48:09.571Z,96.13
2018-11-04T06:50:38.954Z,96.32
2018-11-04T06:53:08.314Z,96.02
2018-11-04T06:55:37.663Z,96.33
2018-11-04T06:58:07.349Z,96.18
2018-11-04T07:00:36.799Z,95.67
2018-11-04T07:03:06.294Z,95.29
2018-11-04T07:05:35.704Z,95.86
2018-11-04T07:08:05.222Z,95.04
2018-11-04T07:10:34.504Z,95.44
2018-11-04T07:13:03.823Z,94.61
2018-11-04T07:15:33.080Z,94.84
2018-11-04T07:18:02.430Z,95.15
2018-11-04T07:20:31.731Z,94.50
2018-11-04T07:23:01.028Z,94.72
2018-11-04T07:25:30.364Z,94.71
2018-11-04T07:27:59.691Z,93.91
2018-11-04T07:30:28.949Z,94.38
2018-11-04T07:32:58.272Z,94.13
2018-11-04T07:35:27.546Z,94.07
2018-11-04T07:37:56.848Z,93.72
2018-11-04T07:40:26.161Z,93.13
2018-11-04T07:42:55.742Z,93.47
2018-11-04T07:45:25.146Z,93.05
2018-11-04T07:47:54.461Z,92.82
2018-11-04T07:50:23.785Z,93.57
2018-11-04T07:52:53.134Z,92.88
2018-11-04T07:55:22.482Z,92.45
2018-11-04T07:57:52.017Z,92.48
2018-11-04T08:00:21.941Z,92.47
2018-11-04T08:02:51.546Z,92.14
2018-11-04T08:05:21.159Z,91.47
2018-11-04T08:07:50.931Z,89.97
2018-11-04T08:10:20.428Z,89.36
2018-11-04T08:12:50.070Z,90.46
2018-11-04T08:15:19.817Z,91.12
2018-11-04T08:17:49.462Z,90.77
2018-11-04T08:20:19.485Z,90.37
2018-11-04T08:22:49.233Z,90.52
2018-11-04T08:25:18.851Z,90.85
2018-11-04T08:27:48.573Z,91.54
2018-11-04T08:30:18.536Z,90.70
2018-11-04T08:32:48.181Z,91.35
2018-11-04T08:35:17.713Z,91.15
2018-11-04T08:37:47.404Z,91.17
2018-11-04T08:40:17.062Z,90.69
2018-11-04T08:42:46.599Z,89.79
2018-11-04T08:45:16.203Z,90.61
2018-11-04T08:47:45.601Z,89.99
2018-11-04T08:50:16.368Z,90.43
2018-11-04T08:52:48.380Z,91.40
2018-11-04T08:55:17.762Z,88.06
2018-11-04T08:57:47.285Z,89.02
2018-11-04T09:00:17.102Z,88.92
2018-11-04T09:02:46.644Z,88.24
2018-11-04T09:05:16.270Z,87.63
2018-11-04T09:07:45.729Z,86.46
2018-11-04T09:10:17.649Z,86.81
2018-11-04T09:12:48.288Z,86.54
2018-11-04T09:15:18.808Z,86.33
2018-11-04T09:17:48.705Z,85.73
2018-11-04T09:20:18.752Z,85.75
2018-11-04T09:22:50.215Z,85.65
2018-11-04T09:25:21.032Z,85.14
2018-11-04T09:27:51.705Z,83.65
2018-11-04T09:30:22.227Z,83.10
2018-11-04T09:32:51.639Z,82.94
2018-11-04T09:35:21.352Z,83.38
2018-11-04T09:37:50.631Z,82.92
2018-11-04T09:40:20.123Z,82.73
2018-11-04T09:42:51.447Z,81.91
2018-11-04T09:45:22.974Z,82.45
2018-11-04T09:47:52.852Z,83.89
2018-11-04T09:50:24.799Z,85.35
2018-11-04T09:52:54.191Z,83.06
2018-11-04T09:55:24.569Z,83.15
2018-11-04T09:57:53.962Z,83.50
2018-11-04T10:00:23.371Z,82.93
2018-11-04T10:02:52.732Z,84.08
2018-11-04T10:05:22.139Z,83.18
2018-11-04T10:07:51.573Z,84.77
2018-11-04T10:10:21.122Z,84.67
2018-11-04T10:12:50.497Z,87.97
2018-11-04T10:15:19.924Z,87.45
2018-11-04T10:17:49.365Z,85.59
2018-11-04T10:20:19.209Z,87.83
2018-11-04T10:22:48.662Z,85.51
2018-11-04T10:25:18.194Z,83.77
2018-11-04T10:27:47.883Z,83.74
2018-11-04T10:30:17.827Z,83.67
2018-11-04T10:32:47.906Z,82.85
2018-11-04T10:35:17.554Z,84.41
2018-11-04T10:37:47.292Z,82.53
2018-11-04T10:40:16.782Z,80.73
2018-11-04T10:42:46.684Z,80.88
2018-11-04T10:45:16.353Z,80.50
2018-11-04T10:47:46.408Z,81.89
2018-11-04T10:50:15.993Z,81.39
2018-11-04T10:52:47.263Z,80.46
2018-11-04T10:55:16.979Z,78.46
2018-11-04T10:57:47.327Z,80.85
2018-11-04T11:00:22.126Z,81.06
2018-11-04T11:02:51.494Z,82.65
2018-11-04T11:05:21.013Z,81.02
2018-11-04T11:07:50.672Z,82.01
2018-11-04T11:10:20.264Z,81.00
2018-11-04T11:12:50.784Z,80.66
2018-11-04T11:15:20.298Z,82.86
2018-11-04T11:17:50.772Z,81.43
2018-11-04T11:20:20.364Z,81.06
2018-11-04T11:22:51.115Z,81.31
2018-11-04T11:25:20.524Z,81.71
2018-11-04T11:27:50.781Z,80.53
2018-11-04T11:30:20.296Z,80.53
2018-11-04T11:32:50.326Z,81.17
2018-11-04T11:35:20.093Z,80.25
2018-11-04T11:37:50.348Z,81.57
2018-11-04T11:40:19.854Z,82.42
2018-11-04T11:42:49.673Z,81.52
2018-11-04T11:45:19.314Z,81.52
2018-11-04T11:47:49.936Z,82.33
2018-11-04T11:50:19.554Z,83.27
2018-11-04T11:52:49.653Z,83.59
2018-11-04T11:55:19.112Z,84.91
2018-11-04T11:57:48.709Z,84.84
2018-11-04T12:00:18.210Z,85.48
2018-11-04T12:02:47.662Z,85.44
2018-11-04T12:05:17.253Z,85.35
2018-11-04T12:07:47.052Z,84.45
2018-11-04T12:10:16.482Z,84.81
2018-11-04T12:12:46.163Z,83.90
2018-11-04T12:15:15.671Z,83.46
2018-11-04T12:17:45.949Z,82.69
2018-11-04T12:20:15.410Z,84.10
2018-11-04T12:22:45.960Z,84.69
2018-11-04T12:25:15.343Z,84.50
2018-11-04T12:27:44.986Z,84.61
2018-11-04T12:30:15.387Z,82.97
2018-11-04T12:32:44.886Z,84.07
2018-11-04T12:35:14.875Z,85.86
2018-11-04T12:37:44.255Z,85.71
2018-11-04T12:40:14.083Z,85.42
2018-11-04T12:42:43.384Z,85.51
2018-11-04T12:45:13.295Z,85.56
2018-11-04T12:47:42.781Z,85.25
2018-11-04T12:50:13.035Z,85.60
2018-11-04T12:52:42.480Z,86.35
2018-11-04T12:55:12.053Z,86.42
2018-11-04T12:57:41.370Z,85.46
2018-11-04T13:00:13.427Z,84.52
2018-11-04T13:02:43.612Z,83.54
2018-11-04T13:05:13.275Z,84.49
2018-11-04T13:07:42.610Z,84.60
2018-11-04T13:10:13.251Z,85.62
2018-11-04T13:12:42.532Z,85.28
2018-11-04T13:15:13.069Z,85.21
2018-11-04T13:17:42.838Z,84.65
2018-11-04T13:20:13.414Z,86.52
2018-11-04T13:22:42.775Z,86.78
2018-11-04T13:25:12.086Z,85.43
2018-11-04T13:27:41.435Z,86.42
2018-11-04T13:30:12.324Z,88.11
2018-11-04T13:32:41.999Z,87.34
2018-11-04T13:35:11.320Z,87.79
2018-11-04T13:37:40.701Z,88.27
2018-11-04T13:40:11.392Z,87.54
2018-11-04T13:42:41.071Z,87.55
2018-11-04T13:45:10.984Z,88.69
2018-11-04T13:47:40.384Z,88.51
2018-11-04T13:50:12.113Z,88.10
2018-11-04T13:52:41.499Z,89.20
2018-11-04T13:55:10.655Z,88.27
2018-11-04T13:57:40.223Z,87.72
2018-11-04T14:00:15.205Z,88.01
2018-11-04T14:02:45.791Z,89.08
2018-11-04T14:05:15.231Z,88.47
2018-11-04T14:07:44.759Z,88.61
2018-11-04T14:10:15.324Z,88.37
2018-11-04T14:12:45.339Z,88.83
2018-11-04T14:15:15.066Z,89.11
2018-11-04T14:17:44.414Z,88.90
2018-11-04T14:20:14.099Z,89.96
2018-11-04T14:22:43.454Z,89.50
2018-11-04T14:25:13.215Z,89.70
2018-11-04T14:27:42.507Z,89.26
2018-11-04T14:30:13.909Z,89.39
2018-11-04T14:32:43.550Z,89.33
2018-11-04T14:35:13.122Z,89.73
2018-11-04T14:37:43.153Z,90.04
2018-11-04T14:40:14.023Z,89.44
2018-11-04T14:42:44.113Z,90.22
2018-11-04T14:45:13.476Z,90.40
2018-11-04T14:47:42.808Z,90.10
2018-11-04T14:50:16.299Z,90.45
2018-11-04T14:52:45.848Z,90.85
2018-11-04T14:55:15.201Z,91.50
2018-11-04T14:57:44.651Z,91.04
2018-11-04T15:00:15.249Z,91.30
2018-11-04T15:02:44.665Z,91.41
2018-11-04T15:05:14.091Z,91.55
2018-11-04T15:07:43.526Z,91.46
2018-11-04T15:10:13.961Z,91.81
2018-11-04T15:12:43.454Z,92.01
2018-11-04T15:15:14.224Z,92.13
2018-11-04T15:17:44.281Z,92.36
2018-11-04T15:20:13.660Z,92.37
2018-11-04T15:22:46.131Z,92.13
2018-11-04T15:25:16.610Z,92.12
2018-11-04T15:27:46.233Z,92.62
2018-11-04T15:30:15.698Z,92.63
2018-11-04T15:32:45.274Z,92.62
2018-11-04T15:35:15.430Z,93.25
2018-11-04T15:37:45.300Z,92.50
2018-11-04T15:40:15.690Z,93.13
2018-11-04T15:42:45.165Z,93.16
2018-11-04T15:45:15.374Z,93.31
2018-11-04T15:47:44.801Z,93.54
2018-11-04T15:50:16.446Z,93.66
2018-11-04T15:52:46.146Z,93.68
2018-11-04T15:55:15.631Z,94.07
2018-11-04T15:57:44.862Z,94.24
2018-11-04T16:00:15.254Z,93.69
2018-11-04T16:02:44.781Z,94.30
2018-11-04T16:05:14.291Z,94.49
2018-11-04T16:07:43.569Z,94.60
2018-11-04T16:10:13.331Z,94.45
2018-11-04T16:12:42.631Z,94.92
2018-11-04T16:15:14.824Z,95.28
2018-11-04T16:17:45.062Z,95.64
2018-11-04T16:20:15.542Z,95.67
2018-11-04T16:22:45.657Z,95.20
2018-11-04T16:25:15.177Z,95.26
2018-11-04T16:27:44.596Z,95.86
2018-11-04T16:30:17.886Z,95.73
2018-11-04T16:32:47.453Z,95.44
2018-11-04T16:35:17.247Z,95.43
2018-11-04T16:37:46.947Z,95.92
2018-11-04T16:40:16.396Z,95.84
2018-11-04T16:42:45.785Z,95.52
2018-11-04T16:45:16.210Z,95.77
2018-11-04T16:47:45.711Z,95.79
2018-11-04T16:50:15.993Z,95.54
2018-11-04T16:52:46.050Z,95.37
2018-11-04T16:55:16.081Z,95.38
2018-11-04T16:57:46.231Z,95.45
2018-11-04T17:00:15.710Z,95.37
2018-11-04T17:02:45.272Z,96.16
2018-11-04T17:05:18.171Z,96.26
2018-11-04T17:07:47.519Z,95.72
2018-11-04T17:10:19.573Z,96.72
2018-11-04T17:12:49.129Z,96.23
2018-11-04T17:15:18.779Z,96.12
2018-11-04T17:17:48.490Z,96.79
2018-11-04T17:20:18.876Z,96.95
2018-11-04T17:22:48.704Z,96.59
2018-11-04T17:25:18.485Z,96.24
2018-11-04T17:27:48.246Z,96.61
2018-11-04T17:30:18.759Z,96.54
2018-11-04T17:32:48.797Z,96.44
2018-11-04T17:35:25.147Z,96.52
2018-11-04T17:37:54.489Z,97.16
2018-11-04T17:40:23.858Z,96.31
2018-11-04T17:42:53.126Z,96.57
2018-11-04T17:45:22.661Z,97.18
2018-11-04T17:47:52.111Z,96.55
2018-11-04T17:50:21.594Z,97.01
2018-11-04T17:52:52.002Z,97.38
2018-11-04T17:55:21.663Z,97.25
2018-11-04T17:57:51.358Z,97.34
2018-11-04T18:00:21.195Z,96.95
2018-11-04T18:02:50.641Z,96.89
2018-11-04T18:05:20.302Z,97.18
2018-11-04T18:07:49.953Z,97.35
2018-11-04T18:10:19.532Z,97.05
2018-11-04T18:12:49.092Z,97.16
2018-11-04T18:15:18.705Z,96.98
2018-11-04T18:17:48.376Z,96.94
2018-11-04T18:20:18.063Z,96.97
2018-11-04T18:22:47.591Z,97.52
2018-11-04T18:25:17.715Z,96.88
2018-11-04T18:27:47.247Z,96.81
2018-11-04T18:30:17.576Z,96.83
2018-11-04T18:32:47.514Z,96.89
2018-11-04T18:35:17.624Z,96.72
2018-11-04T18:37:47.266Z,96.68
2018-11-04T18:40:18.378Z,96.90
2018-11-04T18:42:47.804Z,97.06
2018-11-04T18:45:18.146Z,96.80
2018-11-04T18:47:47.758Z,97.53
2018-11-04T18:50:17.992Z,96.88
2018-11-04T18:52:48.022Z,97.07
2018-11-04T18:55:17.728Z,97.71
2018-11-04T18:57:47.276Z,97.50
2018-11-04T19:00:18.793Z,97.59
2018-11-04T19:02:49.016Z,97.51
2018-11-04T19:05:18.808Z,97.39
2018-11-04T19:07:48.251Z,97.36
2018-11-04T19:10:19.211Z,97.88
2018-11-04T19:12:48.831Z,97.59
2018-11-04T19:15:18.535Z,97.11
2018-11-04T19:17:48.340Z,97.93
2018-11-04T19:20:18.153Z,97.70
2018-11-04T19:22:47.764Z,97.51
2018-11-04T19:25:17.458Z,97.31
2018-11-04T19:27:47.378Z,98.28
2018-11-04T19:30:18.255Z,98.84
2018-11-04T19:32:48.219Z,98.75
2018-11-04T19:35:18.416Z,98.15
2018-11-04T19:37:48.012Z,98.57
2018-11-04T19:40:18.184Z,98.35
2018-11-04T19:42:47.810Z,98.44
2018-11-04T19:45:17.502Z,98.35
2018-11-04T19:47:47.164Z,98.41
2018-11-04T19:50:16.756Z,98.96
2018-11-04T19:52:46.225Z,98.46
2018-11-04T19:55:15.650Z,99.00
2018-11-04T19:57:45.144Z,98.51
2018-11-04T20:00:14.664Z,98.57
2018-11-04T20:02:44.042Z,99.21
2018-11-04T20:05:13.990Z,98.65
2018-11-04T20:07:43.321Z,98.46
2018-11-04T20:10:15.558Z,98.67
2018-11-04T20:12:50.150Z,98.81
2018-11-04T20:15:19.906Z,98.85
2018-11-04T20:17:49.876Z,99.07
2018-11-04T20:20:25.921Z,99.50
2018-11-04T20:22:55.359Z,99.18
2018-11-04T20:25:29.937Z,99.17
2018-11-04T20:27:59.650Z,99.44
2018-11-04T20:30:29.176Z,99.15
2018-11-04T20:33:06.963Z,99.09
2018-11-04T20:35:36.407Z,99.24
2018-11-04T20:38:06.187Z,99.14
2018-11-04T20:41:39.959Z,99.70
2018-11-04T20:44:09.382Z,100.00
2018-11-04T20:46:38.981Z,100.00
2018-11-04T20:49:13.613Z,99.82
2018-11-04T20:51:43.084Z,99.77
2018-11-04T20:54:12.495Z,100.00
2018-11-04T20:56:46.999Z,100.00
2018-11-04T20:59:16.498Z,100.00
2018-11-04T21:01:45.937Z,100.00
2018-11-04T21:04:15.385Z,100.00
2018-11-04T21:06:44.779Z,100.00
2018-11-04T21:09:14.485Z,100.00
2018-11-04T21:11:43.928Z,100.00
2018-11-04T21:14:13.256Z,100.00
2018-11-04T21:16:43.092Z,100.00
2018-11-04T21:19:12.362Z,100.00
2018-11-04T21:21:41.679Z,100.00
2018-11-04T21:24:11.046Z,100.00
2018-11-04T21:26:40.357Z,100.00
2018-11-04T21:29:10.013Z,100.00
2018-11-04T21:31:39.010Z,100.00
2018-11-04T21:34:08.462Z,100.00
2018-11-04T21:36:38.959Z,100.00
2018-11-04T21:39:10.422Z,100.00
2018-11-04T21:41:39.723Z,100.00
2018-11-04T21:44:09.248Z,100.00
2018-11-04T21:46:38.429Z,100.00
2018-11-04T21:49:07.851Z,100.00
2018-11-04T21:51:37.189Z,100.00
2018-11-04T21:54:06.700Z,100.00
2018-11-04T21:56:36.324Z,100.00
2018-11-04T21:59:05.596Z,100.00
2018-11-04T22:01:35.151Z,100.00
2018-11-04T22:04:04.567Z,100.00
2018-11-04T22:06:33.961Z,100.00
2018-11-04T22:09:03.395Z,100.00
2018-11-04T22:11:32.786Z,100.00
2018-11-04T22:14:02.188Z,100.00
2018-11-04T22:16:31.410Z,100.00
2018-11-04T22:19:00.783Z,100.00
2018-11-04T22:21:30.124Z,100.00
2018-11-04T22:24:00.421Z,100.00
2018-11-04T22:26:29.754Z,100.00
2018-11-04T22:28:59.110Z,100.00
2018-11-04T22:31:28.442Z,100.00
2018-11-04T22:33:57.788Z,100.00
2018-11-04T22:36:27.174Z,100.00
2018-11-04T22:38:56.517Z,100.00
2018-11-04T22:41:25.835Z,100.00
2018-11-04T22:43:55.100Z,100.00
2018-11-04T22:46:24.418Z,100.00
2018-11-04T22:48:53.801Z,100.00
2018-11-04T22:51:23.169Z,100.00
2018-11-04T22:53:52.610Z,100.00
2018-11-04T22:56:22.049Z,100.00
2018-11-04T22:58:51.392Z,100.00
2018-11-04T23:01:20.952Z,100.00
2018-11-04T23:03:50.343Z,100.00
2018-11-04T23:06:19.749Z,100.00
2018-11-04T23:08:49.191Z,100.00
2018-11-04T23:11:18.726Z,100.00
2018-11-04T23:13:48.103Z,100.00
2018-11-04T23:16:17.545Z,100.00
2018-11-04T23:18:47.310Z,100.00
2018-11-04T23:21:16.626Z,100.00
2018-11-04T23:23:46.670Z,100.00
2018-11-04T23:26:16.146Z,100.00
2018-11-04T23:28:45.570Z,100.00
2018-11-04T23:31:14.925Z,100.00
2018-11-04T23:33:44.287Z,100.00
2018-11-04T23:36:13.861Z,100.00
2018-11-04T23:38:43.187Z,100.00
2018-11-04T23:41:12.454Z,100.00
2018-11-04T23:43:41.790Z,100.00
2018-11-04T23:46:11.099Z,100.00
2018-11-04T23:48:40.667Z,100.00
2018-11-04T23:51:09.972Z,100.00
2018-11-04T23:53:39.357Z,100.00
2018-11-04T23:56:08.695Z,100.00
2018-11-04T23:58:38.077Z,100.00
